This is the latest recevied weather packets stored in our database for station/object KE5KUL-13. If no packets are shown the sender has not sent any weather packets the latest 10 day(s).
| Time | Temp. | Humidity | Pressure | Rain* | Wind** | Luminosity | Snow |
|---|---|---|---|---|---|---|---|
| 1778170280 | 15.56° C | 61% | 1023 hPa | 0 mm | - | - | - |
| 1778169918 | 15° C | 64% | 1023 hPa | 0 mm | - | - | - |
| 1778169318 | 13.89° C | 64% | 1022.8 hPa | 0 mm | - | - | - |
| 1778168718 | 13.33° C | 69% | 1022.9 hPa | 0 mm | - | - | - |
| 1778168118 | 12.78° C | 76% | 1022.8 hPa | 0 mm | - | - | - |
| 1778167518 | 11.67° C | 83% | 1023 hPa | 0 mm | - | - | - |
| 1778166918 | 10.56° C | 85% | 1022.6 hPa | 0 mm | - | - | - |
| 1778166318 | 8.89° C | 91% | 1022.8 hPa | 0 mm | - | - | - |
| 1778165718 | 8.33° C | 93% | 1022.6 hPa | 0 mm | - | - | - |
| 1778165118 | 7.22° C | 93% | 1022.6 hPa | 0 mm | - | - | - |
| 1778164518 | 7.22° C | 94% | 1022.7 hPa | 0 mm | - | - | - |
| 1778163918 | 6.67° C | 93% | 1022.6 hPa | 0 mm | - | - | - |
| 1778163318 | 6.11° C | 93% | 1022.5 hPa | 0 mm | - | - | - |
| 1778162718 | 6.11° C | 93% | 1022.7 hPa | 0 mm | - | - | - |
| 1778162118 | 6.11° C | 92% | 1022.4 hPa | 0 mm | - | - | - |
| 1778161518 | 5.56° C | 92% | 1022.4 hPa | 0 mm | - | - | - |
| 1778160918 | 5.56° C | 92% | 1022.5 hPa | 0 mm | - | - | - |
| 1778160318 | 5.56° C | 92% | 1022.7 hPa | 0 mm | - | - | - |
| 1778159717 | 5.56° C | 92% | 1022.8 hPa | 0 mm | - | - | - |
| 1778159118 | 5.56° C | 92% | 1022.8 hPa | 0 mm | - | - | - |
| 1778158518 | 5.56° C | 92% | 1022.6 hPa | 0 mm | - | - | - |
| 1778157918 | 5° C | 92% | 1022.5 hPa | 0 mm | - | - | - |
| 1778157318 | 5° C | 91% | 1022.4 hPa | 0 mm | - | - | - |
| 1778156717 | 5° C | 91% | 1022.6 hPa | 0 mm | - | - | - |
| 1778156118 | 5° C | 91% | 1022.6 hPa | 0 mm | - | - | - |
* Rain latest hour (hover to see other rain measurements)
** Current wind speed in m/s (hover to see current wind gust speed)